sensor_id;sensor_type;location;lat;lon;timestamp;pressure;altitude;pressure_sealevel;temperature;humidity
58295;BME280;45705;55.592;37.460;2023-02-16T00:01:53;99977.91;;;-3.13;86.45
58295;BME280;45705;55.592;37.460;2023-02-16T00:04:25;99976.91;;;-2.99;85.22
58295;BME280;45705;55.592;37.460;2023-02-16T00:06:52;99969.75;;;-3.05;84.40
58295;BME280;45705;55.592;37.460;2023-02-16T00:09:20;99968.16;;;-3.41;85.06
58295;BME280;45705;55.592;37.460;2023-02-16T00:11:46;99974.38;;;-3.21;86.03
58295;BME280;45705;55.592;37.460;2023-02-16T00:14:34;99973.31;;;-3.33;85.58
58295;BME280;45705;55.592;37.460;2023-02-16T00:17:00;99978.63;;;-3.33;86.19
58295;BME280;45705;55.592;37.460;2023-02-16T00:19:33;99976.63;;;-3.24;87.32
58295;BME280;45705;55.592;37.460;2023-02-16T00:22:00;99978.44;;;-3.31;87.04
58295;BME280;45705;55.592;37.460;2023-02-16T00:24:28;99970.22;;;-3.37;87.71
58295;BME280;45705;55.592;37.460;2023-02-16T00:26:54;99965.88;;;-3.44;88.45
58295;BME280;45705;55.592;37.460;2023-02-16T00:31:50;99964.22;;;-3.45;89.05
58295;BME280;45705;55.592;37.460;2023-02-16T00:37:03;99969.25;;;-3.29;88.63
58295;BME280;45705;55.592;37.460;2023-02-16T00:39:30;99973.75;;;-3.23;88.00
58295;BME280;45705;55.592;37.460;2023-02-16T00:42:10;99971.03;;;-3.36;88.49
58295;BME280;45705;55.592;37.460;2023-02-16T00:44:44;99971.72;;;-3.21;89.35
58295;BME280;45705;55.592;37.460;2023-02-16T00:47:29;99970.72;;;-3.20;88.99
58295;BME280;45705;55.592;37.460;2023-02-16T00:49:57;99961.03;;;-3.34;88.68
58295;BME280;45705;55.592;37.460;2023-02-16T00:54:59;99974.72;;;-3.37;89.04
58295;BME280;45705;55.592;37.460;2023-02-16T00:57:31;99952.84;;;-3.39;88.40
58295;BME280;45705;55.592;37.460;2023-02-16T01:02:35;99966.97;;;-3.67;90.66
58295;BME280;45705;55.592;37.460;2023-02-16T01:05:01;99968.94;;;-3.47;90.14
58295;BME280;45705;55.592;37.460;2023-02-16T01:07:27;99974.50;;;-3.42;89.50
58295;BME280;45705;55.592;37.460;2023-02-16T01:10:11;99969.34;;;-3.50;89.56
58295;BME280;45705;55.592;37.460;2023-02-16T01:13:13;99967.56;;;-3.37;90.10
58295;BME280;45705;55.592;37.460;2023-02-16T01:15:39;99968.78;;;-3.39;90.18
58295;BME280;45705;55.592;37.460;2023-02-16T01:18:05;99967.50;;;-3.43;89.03
58295;BME280;45705;55.592;37.460;2023-02-16T01:20:31;99970.41;;;-3.38;89.48
58295;BME280;45705;55.592;37.460;2023-02-16T01:22:59;99970.25;;;-3.30;89.51
58295;BME280;45705;55.592;37.460;2023-02-16T01:25:25;99974.16;;;-3.26;89.77
58295;BME280;45705;55.592;37.460;2023-02-16T01:27:52;99961.81;;;-3.40;91.12
58295;BME280;45705;55.592;37.460;2023-02-16T01:30:20;99972.06;;;-3.37;90.76
58295;BME280;45705;55.592;37.460;2023-02-16T01:32:46;99971.22;;;-3.38;90.66
58295;BME280;45705;55.592;37.460;2023-02-16T01:35:34;99980.13;;;-3.24;91.52
58295;BME280;45705;55.592;37.460;2023-02-16T01:37:59;99972.91;;;-3.30;90.69
58295;BME280;45705;55.592;37.460;2023-02-16T01:45:39;99964.22;;;-3.45;93.11
58295;BME280;45705;55.592;37.460;2023-02-16T01:48:20;99977.75;;;-3.47;93.85
58295;BME280;45705;55.592;37.460;2023-02-16T01:51:23;99977.22;;;-3.29;92.66
58295;BME280;45705;55.592;37.460;2023-02-16T01:53:55;99978.22;;;-3.30;92.07
58295;BME280;45705;55.592;37.460;2023-02-16T01:59:15;99985.22;;;-3.22;92.29
58295;BME280;45705;55.592;37.460;2023-02-16T02:01:57;99975.72;;;-3.38;92.91
58295;BME280;45705;55.592;37.460;2023-02-16T02:04:38;99977.84;;;-3.27;92.77
58295;BME280;45705;55.592;37.460;2023-02-16T02:07:26;99987.69;;;-3.21;93.23
58295;BME280;45705;55.592;37.460;2023-02-16T02:10:02;99983.53;;;-3.30;94.68
58295;BME280;45705;55.592;37.460;2023-02-16T02:15:26;99974.31;;;-3.34;93.92
58295;BME280;45705;55.592;37.460;2023-02-16T02:17:54;99980.44;;;-3.40;94.08
58295;BME280;45705;55.592;37.460;2023-02-16T02:23:33;99982.47;;;-3.36;94.22
58295;BME280;45705;55.592;37.460;2023-02-16T02:34:49;99984.16;;;-3.63;95.29
58295;BME280;45705;55.592;37.460;2023-02-16T02:43:13;99974.81;;;-3.59;94.74
58295;BME280;45705;55.592;37.460;2023-02-16T02:45:47;99980.75;;;-3.57;94.75
58295;BME280;45705;55.592;37.460;2023-02-16T02:48:14;99972.00;;;-3.50;93.78
58295;BME280;45705;55.592;37.460;2023-02-16T02:51:20;99990.34;;;-3.56;94.60
58295;BME280;45705;55.592;37.460;2023-02-16T02:54:07;99987.84;;;-3.64;95.88
58295;BME280;45705;55.592;37.460;2023-02-16T02:57:17;99986.28;;;-3.51;95.67
58295;BME280;45705;55.592;37.460;2023-02-16T03:00:15;99983.69;;;-3.73;97.48
58295;BME280;45705;55.592;37.460;2023-02-16T03:05:41;99992.84;;;-3.82;99.29
58295;BME280;45705;55.592;37.460;2023-02-16T03:08:11;99990.06;;;-3.74;98.08
58295;BME280;45705;55.592;37.460;2023-02-16T03:10:42;99986.88;;;-3.84;98.29
58295;BME280;45705;55.592;37.460;2023-02-16T03:13:35;99992.19;;;-3.84;97.71
58295;BME280;45705;55.592;37.460;2023-02-16T03:16:09;99981.19;;;-3.81;98.24
58295;BME280;45705;55.592;37.460;2023-02-16T03:18:39;99991.84;;;-3.81;99.25
58295;BME280;45705;55.592;37.460;2023-02-16T03:21:26;99982.09;;;-3.67;98.18
58295;BME280;45705;55.592;37.460;2023-02-16T03:24:15;99983.94;;;-3.68;98.66
58295;BME280;45705;55.592;37.460;2023-02-16T03:27:02;99981.81;;;-3.79;99.90
58295;BME280;45705;55.592;37.460;2023-02-16T03:29:49;99978.53;;;-3.81;99.68
58295;BME280;45705;55.592;37.460;2023-02-16T03:32:16;99975.63;;;-3.86;100.00
58295;BME280;45705;55.592;37.460;2023-02-16T03:34:42;99964.84;;;-3.78;99.63
58295;BME280;45705;55.592;37.460;2023-02-16T03:37:08;99968.53;;;-3.79;99.51
58295;BME280;45705;55.592;37.460;2023-02-16T03:39:34;99970.03;;;-3.70;98.57
58295;BME280;45705;55.592;37.460;2023-02-16T03:42:21;99975.00;;;-3.88;99.30
58295;BME280;45705;55.592;37.460;2023-02-16T03:44:47;99979.94;;;-3.85;99.72
58295;BME280;45705;55.592;37.460;2023-02-16T03:47:14;99982.34;;;-3.90;99.85
58295;BME280;45705;55.592;37.460;2023-02-16T03:49:40;99979.09;;;-3.86;100.00
58295;BME280;45705;55.592;37.460;2023-02-16T03:52:05;99976.31;;;-3.78;98.89
58295;BME280;45705;55.592;37.460;2023-02-16T03:54:31;99978.00;;;-3.70;99.01
58295;BME280;45705;55.592;37.460;2023-02-16T03:56:57;99973.16;;;-3.60;97.20
58295;BME280;45705;55.592;37.460;2023-02-16T03:59:22;99973.88;;;-3.72;98.02
58295;BME280;45705;55.592;37.460;2023-02-16T04:01:48;99977.13;;;-3.77;97.74
58295;BME280;45705;55.592;37.460;2023-02-16T04:04:14;99975.47;;;-3.78;98.15
58295;BME280;45705;55.592;37.460;2023-02-16T04:06:39;99969.34;;;-3.79;97.97
58295;BME280;45705;55.592;37.460;2023-02-16T04:09:05;99970.25;;;-3.65;97.75
58295;BME280;45705;55.592;37.460;2023-02-16T04:11:31;99974.28;;;-3.76;97.75
58295;BME280;45705;55.592;37.460;2023-02-16T04:14:16;99964.56;;;-3.90;98.16
58295;BME280;45705;55.592;37.460;2023-02-16T04:16:41;99967.56;;;-3.71;96.88
58295;BME280;45705;55.592;37.460;2023-02-16T04:19:07;99961.38;;;-3.79;96.92
58295;BME280;45705;55.592;37.460;2023-02-16T04:21:33;99952.53;;;-3.86;97.84
58295;BME280;45705;55.592;37.460;2023-02-16T04:23:59;99956.66;;;-3.83;97.90
58295;BME280;45705;55.592;37.460;2023-02-16T04:26:25;99958.38;;;-3.69;97.13
58295;BME280;45705;55.592;37.460;2023-02-16T04:28:50;99955.25;;;-3.79;96.11
58295;BME280;45705;55.592;37.460;2023-02-16T04:31:16;99955.50;;;-3.74;95.65
58295;BME280;45705;55.592;37.460;2023-02-16T04:33:42;99952.63;;;-3.72;95.75
58295;BME280;45705;55.592;37.460;2023-02-16T04:36:08;99944.38;;;-3.84;95.98
58295;BME280;45705;55.592;37.460;2023-02-16T04:38:34;99961.56;;;-3.80;96.67
58295;BME280;45705;55.592;37.460;2023-02-16T04:40:59;99969.41;;;-3.72;96.68
58295;BME280;45705;55.592;37.460;2023-02-16T04:43:25;99964.09;;;-3.72;96.03
58295;BME280;45705;55.592;37.460;2023-02-16T04:45:51;99952.09;;;-3.61;95.30
58295;BME280;45705;55.592;37.460;2023-02-16T04:48:17;99961.72;;;-3.60;95.27
58295;BME280;45705;55.592;37.460;2023-02-16T04:50:42;99960.25;;;-3.63;95.20
58295;BME280;45705;55.592;37.460;2023-02-16T04:53:08;99955.97;;;-3.64;95.75
58295;BME280;45705;55.592;37.460;2023-02-16T04:55:34;99951.03;;;-3.67;95.24
58295;BME280;45705;55.592;37.460;2023-02-16T04:57:59;99937.47;;;-3.79;96.35
58295;BME280;45705;55.592;37.460;2023-02-16T05:00:25;99949.78;;;-3.71;96.93
58295;BME280;45705;55.592;37.460;2023-02-16T05:02:51;99949.63;;;-3.63;96.38
58295;BME280;45705;55.592;37.460;2023-02-16T05:05:17;99957.22;;;-3.60;96.08
58295;BME280;45705;55.592;37.460;2023-02-16T05:07:43;99949.00;;;-3.65;94.90
58295;BME280;45705;55.592;37.460;2023-02-16T05:10:09;99949.88;;;-3.58;95.26
58295;BME280;45705;55.592;37.460;2023-02-16T05:12:35;99951.97;;;-3.46;94.44
58295;BME280;45705;55.592;37.460;2023-02-16T05:15:19;99964.09;;;-3.37;94.44
58295;BME280;45705;55.592;37.460;2023-02-16T05:17:45;99957.66;;;-3.49;93.92
58295;BME280;45705;55.592;37.460;2023-02-16T05:20:11;99967.94;;;-3.46;94.04
58295;BME280;45705;55.592;37.460;2023-02-16T05:22:37;99959.69;;;-3.51;95.53
58295;BME280;45705;55.592;37.460;2023-02-16T05:25:06;99958.91;;;-3.45;95.62
58295;BME280;45705;55.592;37.460;2023-02-16T05:27:32;99959.50;;;-3.57;95.19
58295;BME280;45705;55.592;37.460;2023-02-16T05:29:58;99962.56;;;-3.53;95.52
58295;BME280;45705;55.592;37.460;2023-02-16T05:32:24;99966.25;;;-3.47;95.90
58295;BME280;45705;55.592;37.460;2023-02-16T05:34:49;99964.19;;;-3.59;94.85
58295;BME280;45705;55.592;37.460;2023-02-16T05:37:17;99964.19;;;-3.59;95.19
58295;BME280;45705;55.592;37.460;2023-02-16T05:39:43;99968.72;;;-3.46;96.47
58295;BME280;45705;55.592;37.460;2023-02-16T05:42:09;99969.06;;;-3.62;95.21
58295;BME280;45705;55.592;37.460;2023-02-16T05:44:35;99965.03;;;-3.51;95.04
58295;BME280;45705;55.592;37.460;2023-02-16T05:47:03;99970.75;;;-3.54;95.51
58295;BME280;45705;55.592;37.460;2023-02-16T05:49:29;99971.59;;;-3.47;95.12
58295;BME280;45705;55.592;37.460;2023-02-16T05:51:55;99969.56;;;-3.45;95.65
58295;BME280;45705;55.592;37.460;2023-02-16T05:54:20;99959.25;;;-3.62;95.25
58295;BME280;45705;55.592;37.460;2023-02-16T05:56:49;99960.56;;;-3.44;95.64
58295;BME280;45705;55.592;37.460;2023-02-16T05:59:15;99966.75;;;-3.37;94.35
58295;BME280;45705;55.592;37.460;2023-02-16T06:01:42;99964.28;;;-3.39;94.33
58295;BME280;45705;55.592;37.460;2023-02-16T06:04:10;99971.72;;;-3.27;94.23
58295;BME280;45705;55.592;37.460;2023-02-16T06:06:37;99961.84;;;-3.33;94.89
58295;BME280;45705;55.592;37.460;2023-02-16T06:09:04;99954.88;;;-3.41;95.32
58295;BME280;45705;55.592;37.460;2023-02-16T06:11:30;99957.78;;;-3.29;93.95
58295;BME280;45705;55.592;37.460;2023-02-16T06:14:13;99960.28;;;-3.21;93.59
58295;BME280;45705;55.592;37.460;2023-02-16T06:16:41;99971.81;;;-3.42;92.53
58295;BME280;45705;55.592;37.460;2023-02-16T06:19:07;99970.41;;;-3.38;92.43
58295;BME280;45705;55.592;37.460;2023-02-16T06:21:35;99966.81;;;-3.24;92.79
58295;BME280;45705;55.592;37.460;2023-02-16T06:24:01;99966.03;;;-3.11;91.57
58295;BME280;45705;55.592;37.460;2023-02-16T06:26:27;99963.78;;;-3.14;91.44
58295;BME280;45705;55.592;37.460;2023-02-16T06:28:53;99961.16;;;-3.01;90.80
58295;BME280;45705;55.592;37.460;2023-02-16T06:31:19;99954.59;;;-3.11;90.38
58295;BME280;45705;55.592;37.460;2023-02-16T06:33:45;99925.09;;;-3.17;90.10
58295;BME280;45705;55.592;37.460;2023-02-16T06:36:12;99951.53;;;-3.02;89.55
58295;BME280;45705;55.592;37.460;2023-02-16T06:38:38;99952.59;;;-2.96;89.57
58295;BME280;45705;55.592;37.460;2023-02-16T06:41:04;99952.63;;;-2.83;89.08
58295;BME280;45705;55.592;37.460;2023-02-16T06:43:30;99952.34;;;-3.01;88.88
58295;BME280;45705;55.592;37.460;2023-02-16T06:45:56;99953.41;;;-2.95;89.79
58295;BME280;45705;55.592;37.460;2023-02-16T06:48:22;99959.63;;;-2.75;89.38
58295;BME280;45705;55.592;37.460;2023-02-16T06:50:47;99955.19;;;-3.09;89.09
58295;BME280;45705;55.592;37.460;2023-02-16T06:53:13;99946.69;;;-2.85;89.18
58295;BME280;45705;55.592;37.460;2023-02-16T06:55:39;99953.94;;;-2.52;87.84
58295;BME280;45705;55.592;37.460;2023-02-16T06:58:05;99952.66;;;-2.69;87.06
58295;BME280;45705;55.592;37.460;2023-02-16T07:00:32;99925.19;;;-2.90;86.35
58295;BME280;45705;55.592;37.460;2023-02-16T07:02:57;99955.13;;;-2.61;86.31
58295;BME280;45705;55.592;37.460;2023-02-16T07:05:23;99964.09;;;-2.82;86.19
58295;BME280;45705;55.592;37.460;2023-02-16T07:07:49;99953.84;;;-2.85;85.75
58295;BME280;45705;55.592;37.460;2023-02-16T07:10:15;99954.72;;;-2.71;85.97
58295;BME280;45705;55.592;37.460;2023-02-16T07:12:41;99951.00;;;-2.70;84.52
58295;BME280;45705;55.592;37.460;2023-02-16T07:15:07;99947.97;;;-2.41;84.16
58295;BME280;45705;55.592;37.460;2023-02-16T07:17:32;99946.94;;;-2.53;83.17
58295;BME280;45705;55.592;37.460;2023-02-16T07:19:58;99947.97;;;-2.41;81.87
58295;BME280;45705;55.592;37.460;2023-02-16T07:22:24;99940.38;;;-2.50;82.52
58295;BME280;45705;55.592;37.460;2023-02-16T07:24:50;99954.09;;;-2.60;84.37
58295;BME280;45705;55.592;37.460;2023-02-16T07:27:15;99944.28;;;-2.53;83.27
58295;BME280;45705;55.592;37.460;2023-02-16T07:29:41;99954.25;;;-2.82;86.07
58295;BME280;45705;55.592;37.460;2023-02-16T07:32:07;99945.94;;;-2.39;84.24
58295;BME280;45705;55.592;37.460;2023-02-16T07:34:32;99944.09;;;-2.38;84.42
58295;BME280;45705;55.592;37.460;2023-02-16T07:36:58;99932.44;;;-2.30;83.67
58295;BME280;45705;55.592;37.460;2023-02-16T07:39:24;99943.25;;;-2.39;82.98
58295;BME280;45705;55.592;37.460;2023-02-16T07:41:50;99929.94;;;-2.39;83.99
58295;BME280;45705;55.592;37.460;2023-02-16T07:44:17;99939.41;;;-2.36;83.04
58295;BME280;45705;55.592;37.460;2023-02-16T07:46:42;99947.38;;;-2.29;82.58
58295;BME280;45705;55.592;37.460;2023-02-16T07:49:08;99934.28;;;-2.11;81.42
58295;BME280;45705;55.592;37.460;2023-02-16T07:51:34;99929.97;;;-2.19;80.98
58295;BME280;45705;55.592;37.460;2023-02-16T07:54:00;99930.16;;;-2.07;81.27
58295;BME280;45705;55.592;37.460;2023-02-16T07:56:30;99930.56;;;-2.10;81.36
58295;BME280;45705;55.592;37.460;2023-02-16T07:58:58;99929.72;;;-2.70;81.74
58295;BME280;45705;55.592;37.460;2023-02-16T08:01:24;99936.69;;;-2.69;82.42
58295;BME280;45705;55.592;37.460;2023-02-16T08:03:51;99933.03;;;-2.28;82.61
58295;BME280;45705;55.592;37.460;2023-02-16T08:06:18;99929.78;;;-2.17;80.20
58295;BME280;45705;55.592;37.460;2023-02-16T08:08:44;99930.75;;;-2.11;79.03
58295;BME280;45705;55.592;37.460;2023-02-16T08:11:16;99938.75;;;-2.58;81.60
58295;BME280;45705;55.592;37.460;2023-02-16T08:13:42;99935.28;;;-2.39;80.83
58295;BME280;45705;55.592;37.460;2023-02-16T08:16:27;99942.88;;;-2.35;80.93
58295;BME280;45705;55.592;37.460;2023-02-16T08:18:58;99942.56;;;-2.94;82.35
58295;BME280;45705;55.592;37.460;2023-02-16T08:21:29;99936.81;;;-2.98;84.68
58295;BME280;45705;55.592;37.460;2023-02-16T08:23:58;99932.81;;;-2.47;84.35
58295;BME280;45705;55.592;37.460;2023-02-16T08:26:27;99936.72;;;-2.29;80.40
58295;BME280;45705;55.592;37.460;2023-02-16T08:28:55;99932.63;;;-2.25;78.77
58295;BME280;45705;55.592;37.460;2023-02-16T08:31:24;99942.44;;;-2.06;79.23
58295;BME280;45705;55.592;37.460;2023-02-16T08:33:52;99921.31;;;-1.87;78.22
58295;BME280;45705;55.592;37.460;2023-02-16T08:36:28;99939.19;;;-2.48;80.13
58295;BME280;45705;55.592;37.460;2023-02-16T08:38:57;99926.88;;;-1.95;79.03
58295;BME280;45705;55.592;37.460;2023-02-16T08:41:28;99928.88;;;-1.84;77.48
58295;BME280;45705;55.592;37.460;2023-02-16T08:43:54;99931.78;;;-1.92;78.50
58295;BME280;45705;55.592;37.460;2023-02-16T08:46:20;99928.50;;;-1.94;77.69
58295;BME280;45705;55.592;37.460;2023-02-16T08:48:47;99933.19;;;-1.76;78.13
58295;BME280;45705;55.592;37.460;2023-02-16T08:51:17;99923.97;;;-1.74;79.03
58295;BME280;45705;55.592;37.460;2023-02-16T08:53:44;99919.34;;;-1.40;76.08
58295;BME280;45705;55.592;37.460;2023-02-16T08:56:11;99917.59;;;-1.14;74.27
58295;BME280;45705;55.592;37.460;2023-02-16T08:58:37;99930.72;;;-1.06;73.96
58295;BME280;45705;55.592;37.460;2023-02-16T09:01:07;99922.50;;;-1.11;72.74
58295;BME280;45705;55.592;37.460;2023-02-16T09:03:34;99910.38;;;-1.07;71.63
58295;BME280;45705;55.592;37.460;2023-02-16T09:06:02;99895.88;;;-1.18;72.55
58295;BME280;45705;55.592;37.460;2023-02-16T09:08:29;99913.25;;;-1.54;73.73
58295;BME280;45705;55.592;37.460;2023-02-16T09:11:00;99922.72;;;-1.65;74.60
58295;BME280;45705;55.592;37.460;2023-02-16T09:13:26;99911.00;;;-1.57;74.49
58295;BME280;45705;55.592;37.460;2023-02-16T09:15:52;99918.56;;;-1.47;74.38
58295;BME280;45705;55.592;37.460;2023-02-16T09:18:18;99919.06;;;-1.90;76.50
58295;BME280;45705;55.592;37.460;2023-02-16T09:20:43;99908.59;;;-1.79;76.46
58295;BME280;45705;55.592;37.460;2023-02-16T09:23:10;99902.44;;;-1.72;76.35
58295;BME280;45705;55.592;37.460;2023-02-16T09:25:38;99906.34;;;-1.82;75.88
58295;BME280;45705;55.592;37.460;2023-02-16T09:28:05;99910.44;;;-1.79;75.68
58295;BME280;45705;55.592;37.460;2023-02-16T09:30:32;99909.44;;;-1.91;76.82
58295;BME280;45705;55.592;37.460;2023-02-16T09:32:59;99904.06;;;-1.65;75.60
58295;BME280;45705;55.592;37.460;2023-02-16T09:35:25;99906.28;;;-1.62;76.07
58295;BME280;45705;55.592;37.460;2023-02-16T09:37:51;99900.59;;;-1.72;77.31
58295;BME280;45705;55.592;37.460;2023-02-16T09:40:17;99903.78;;;-1.50;78.55
58295;BME280;45705;55.592;37.460;2023-02-16T09:42:58;99904.22;;;-1.60;75.35
58295;BME280;45705;55.592;37.460;2023-02-16T09:45:27;99907.50;;;-1.58;76.90
58295;BME280;45705;55.592;37.460;2023-02-16T09:47:59;99901.44;;;-1.78;77.33
58295;BME280;45705;55.592;37.460;2023-02-16T09:50:38;99898.00;;;-1.40;76.21
58295;BME280;45705;55.592;37.460;2023-02-16T09:53:22;99892.72;;;-1.53;76.20
58295;BME280;45705;55.592;37.460;2023-02-16T10:09:42;99859.59;;;-0.94;71.33
58295;BME280;45705;55.592;37.460;2023-02-16T10:12:13;99875.59;;;-0.62;71.16
58295;BME280;45705;55.592;37.460;2023-02-16T10:14:50;99880.69;;;-1.17;70.88
58295;BME280;45705;55.592;37.460;2023-02-16T10:23:25;99889.28;;;-1.15;72.17
58295;BME280;45705;55.592;37.460;2023-02-16T10:26:09;99882.28;;;-1.62;72.44
58295;BME280;45705;55.592;37.460;2023-02-16T10:28:45;99872.34;;;-1.34;72.99
58295;BME280;45705;55.592;37.460;2023-02-16T10:31:42;99884.88;;;-1.42;71.50
58295;BME280;45705;55.592;37.460;2023-02-16T10:39:47;99881.81;;;-2.24;75.66
58295;BME280;45705;55.592;37.460;2023-02-16T10:42:24;99878.09;;;-2.03;75.10
58295;BME280;45705;55.592;37.460;2023-02-16T10:47:32;99879.94;;;-1.96;76.89
58295;BME280;45705;55.592;37.460;2023-02-16T10:49:58;99881.72;;;-1.77;74.69
58295;BME280;45705;55.592;37.460;2023-02-16T10:52:28;99880.16;;;-2.05;74.34
58295;BME280;45705;55.592;37.460;2023-02-16T10:54:57;99874.00;;;-2.12;76.34
58295;BME280;45705;55.592;37.460;2023-02-16T10:57:29;99879.75;;;-2.15;75.76
58295;BME280;45705;55.592;37.460;2023-02-16T11:00:03;99883.88;;;-2.32;74.80
58295;BME280;45705;55.592;37.460;2023-02-16T11:02:40;99888.38;;;-2.26;71.59
58295;BME280;45705;55.592;37.460;2023-02-16T11:07:58;99878.44;;;-1.79;66.67
58295;BME280;45705;55.592;37.460;2023-02-16T11:10:38;99878.50;;;-1.99;65.72
58295;BME280;45705;55.592;37.460;2023-02-16T11:13:05;99871.88;;;-1.70;65.71
58295;BME280;45705;55.592;37.460;2023-02-16T11:15:34;99881.81;;;-2.30;67.95
58295;BME280;45705;55.592;37.460;2023-02-16T11:18:05;99872.50;;;-1.81;65.65
58295;BME280;45705;55.592;37.460;2023-02-16T11:26:00;99869.41;;;-1.65;64.78
58295;BME280;45705;55.592;37.460;2023-02-16T11:28:36;99874.06;;;-1.53;65.27
58295;BME280;45705;55.592;37.460;2023-02-16T11:33:36;99865.63;;;-2.09;64.78
58295;BME280;45705;55.592;37.460;2023-02-16T11:36:30;99862.91;;;-1.89;65.32
58295;BME280;45705;55.592;37.460;2023-02-16T11:39:07;99862.31;;;-2.04;65.55
58295;BME280;45705;55.592;37.460;2023-02-16T11:41:53;99864.16;;;-2.05;66.76
58295;BME280;45705;55.592;37.460;2023-02-16T11:46:52;99865.34;;;-1.87;64.13
58295;BME280;45705;55.592;37.460;2023-02-16T11:49:38;99860.44;;;-1.90;65.52
58295;BME280;45705;55.592;37.460;2023-02-16T11:54:55;99871.50;;;-3.07;72.23
58295;BME280;45705;55.592;37.460;2023-02-16T11:59:54;99868.28;;;-2.62;72.14
58295;BME280;45705;55.592;37.460;2023-02-16T12:11:43;99864.59;;;-2.21;65.68
58295;BME280;45705;55.592;37.460;2023-02-16T12:14:20;99871.84;;;-3.30;66.67
58295;BME280;45705;55.592;37.460;2023-02-16T12:19:41;99864.81;;;-2.56;66.66
58295;BME280;45705;55.592;37.460;2023-02-16T12:22:25;99849.03;;;-2.11;63.65
58295;BME280;45705;55.592;37.460;2023-02-16T12:25:08;99858.38;;;-1.88;61.38
58295;BME280;45705;55.592;37.460;2023-02-16T12:27:55;99862.91;;;-1.89;60.03
58295;BME280;45705;55.592;37.460;2023-02-16T12:43:30;99864.59;;;-2.21;61.56
58295;BME280;45705;55.592;37.460;2023-02-16T12:46:00;99857.97;;;-1.85;63.21
58295;BME280;45705;55.592;37.460;2023-02-16T12:48:53;99865.84;;;-2.17;64.89
58295;BME280;45705;55.592;37.460;2023-02-16T12:51:27;99863.06;;;-1.77;64.68
58295;BME280;45705;55.592;37.460;2023-02-16T12:54:22;99870.31;;;-2.04;63.52
58295;BME280;45705;55.592;37.460;2023-02-16T12:57:05;99867.78;;;-1.79;65.43
58295;BME280;45705;55.592;37.460;2023-02-16T12:59:58;99863.69;;;-1.88;63.83
58295;BME280;45705;55.592;37.460;2023-02-16T13:02:48;99865.59;;;-1.95;64.93
58295;BME280;45705;55.592;37.460;2023-02-16T13:05:31;99863.69;;;-1.88;65.16
58295;BME280;45705;55.592;37.460;2023-02-16T13:08:14;99874.84;;;-2.31;66.97
58295;BME280;45705;55.592;37.460;2023-02-16T13:13:36;99874.03;;;-2.65;68.80
58295;BME280;45705;55.592;37.460;2023-02-16T13:16:07;99865.44;;;-2.81;69.84
58295;BME280;45705;55.592;37.460;2023-02-16T13:18:40;99868.25;;;-2.95;70.26
58295;BME280;45705;55.592;37.460;2023-02-16T13:43:48;99873.22;;;-2.32;72.74
58295;BME280;45705;55.592;37.460;2023-02-16T13:45:47;99877.97;;;-3.36;74.39
58295;BME280;45705;55.592;37.460;2023-02-16T13:48:50;99865.41;;;-2.74;72.97
58295;BME280;45705;55.592;37.460;2023-02-16T13:51:20;99871.16;;;-2.70;69.62
58295;BME280;45705;55.592;37.460;2023-02-16T13:54:01;99871.53;;;-2.93;68.41
58295;BME280;45705;55.592;37.460;2023-02-16T13:58:54;99871.13;;;-3.04;67.94
58295;BME280;45705;55.592;37.460;2023-02-16T14:03:59;99864.94;;;-3.18;66.99
58295;BME280;45705;55.592;37.460;2023-02-16T14:14:31;99871.97;;;-2.83;67.39
58295;BME280;45705;55.592;37.460;2023-02-16T14:19:48;99872.34;;;-2.93;67.32
58295;BME280;45705;55.592;37.460;2023-02-16T14:22:17;99872.28;;;-3.26;67.42
58295;BME280;45705;55.592;37.460;2023-02-16T14:24:53;99874.31;;;-3.28;67.72
58295;BME280;45705;55.592;37.460;2023-02-16T14:27:55;99871.50;;;-3.07;66.94
58295;BME280;45705;55.592;37.460;2023-02-16T14:35:43;99874.03;;;-2.79;66.84
58295;BME280;45705;55.592;37.460;2023-02-16T14:40:52;99879.53;;;-2.80;65.71
58295;BME280;45705;55.592;37.460;2023-02-16T15:01:03;99876.78;;;-3.27;70.57
58295;BME280;45705;55.592;37.460;2023-02-16T15:03:44;99879.63;;;-3.35;70.37
58295;BME280;45705;55.592;37.460;2023-02-16T15:06:33;99875.50;;;-3.38;71.21
58295;BME280;45705;55.592;37.460;2023-02-16T15:09:04;99881.25;;;-3.82;71.58
58295;BME280;45705;55.592;37.460;2023-02-16T15:14:36;99880.06;;;-4.08;74.67
58295;BME280;45705;55.592;37.460;2023-02-16T15:17:08;99873.56;;;-4.33;76.66
58295;BME280;45705;55.592;37.460;2023-02-16T15:19:35;99876.41;;;-4.07;76.81
58295;BME280;45705;55.592;37.460;2023-02-16T15:24:40;99889.69;;;-4.07;79.64
58295;BME280;45705;55.592;37.460;2023-02-16T15:27:05;99880.06;;;-4.08;80.06
58295;BME280;45705;55.592;37.460;2023-02-16T15:29:31;99885.13;;;-4.13;80.89
58295;BME280;45705;55.592;37.460;2023-02-16T15:31:58;99878.44;;;-4.09;81.01
58295;BME280;45705;55.592;37.460;2023-02-16T15:34:28;99881.91;;;-4.37;82.60
58295;BME280;45705;55.592;37.460;2023-02-16T15:36:54;99870.16;;;-4.27;83.46
58295;BME280;45705;55.592;37.460;2023-02-16T15:39:32;99878.34;;;-4.22;82.83
58295;BME280;45705;55.592;37.460;2023-02-16T15:42:18;99874.69;;;-4.21;83.60
58295;BME280;45705;55.592;37.460;2023-02-16T15:44:45;99879.41;;;-4.45;84.72
58295;BME280;45705;55.592;37.460;2023-02-16T15:47:14;99879.38;;;-4.51;84.09
58295;BME280;45705;55.592;37.460;2023-02-16T15:49:42;99877.97;;;-4.19;83.04
58295;BME280;45705;55.592;37.460;2023-02-16T15:52:19;99876.66;;;-4.30;82.31
58295;BME280;45705;55.592;37.460;2023-02-16T15:54:47;99884.59;;;-4.58;81.52
58295;BME280;45705;55.592;37.460;2023-02-16T15:57:19;99879.75;;;-4.55;81.25
58295;BME280;45705;55.592;37.460;2023-02-16T15:59:53;99880.19;;;-4.51;78.50
58295;BME280;45705;55.592;37.460;2023-02-16T16:02:36;99877.56;;;-4.72;78.79
58295;BME280;45705;55.592;37.460;2023-02-16T16:05:06;99877.16;;;-4.69;78.07
58295;BME280;45705;55.592;37.460;2023-02-16T16:07:38;99887.28;;;-4.80;79.83
58295;BME280;45705;55.592;37.460;2023-02-16T16:10:23;99877.47;;;-4.79;81.28
58295;BME280;45705;55.592;37.460;2023-02-16T16:12:51;99886.16;;;-4.92;81.40
58295;BME280;45705;55.592;37.460;2023-02-16T16:15:21;99894.91;;;-4.91;82.85
58295;BME280;45705;55.592;37.460;2023-02-16T16:17:50;99894.09;;;-4.92;81.82